Juniata, Iowa
Current Conditions -  °F | °C
As of 6:55 AM on Wednesday 22 Oct 2014 (Local Time) from KSLB Reporting Station
Few Clouds Few Clouds  
Wind Chill: 39°   Ceiling: Unl
Heat Index: 46°   Visibility: 10mi
Dew Point: 41°   Wind: 18mph
Humidity: 81%   Direction: 140°SE
Pressure: 30.11"   Gusts: NA
Location:  42.674°N, 95.1635°W
Report Text: KSLB 221155Z AUTO 14016KT 10SM FEW032 08/05 A3011 RMK AO2
Loading
Personal Weather Stations






























Interactive Weather Map
Tropical Storm Tracking
New forecast layout! Learn more

10-Day Weather Forecast

Advertisements
Track Severe Weather on mobile